Ravine, Pennsylvania
Current Conditions -  °F | °C
As of 7:24 PM on Sunday 25 Jan 2015 (Local Time) from KMUI Reporting Station
Unknown Precip Unknown Precip  
Wind Chill: 32°   Ceiling: 3200
Heat Index: 36°   Visibility: 10mi
Dew Point: 30°   Wind: 5mph
Humidity: 81%   Direction: 50°NE
Pressure: 29.89"   Gusts: NA
Location:  40.57°N, 76.4°W
Report Text: KMUI 260024Z AUTO 05004KT 10SM UP FEW017 SCT025 BKN032 02/M01 A2989 RMK AO2
Loading
Personal Weather Stations






























Interactive Weather Map New forecast layout! Learn more

10-Day Weather Forecast

Advertisements
Track Severe Weather on mobile